Time;durP1;ratioP1;P1;durP2;ratioP2;P2;SDS_P1;SDS_P2;PMS_P1;PMS_P2;Temp;Humidity;BMP_temperature;BMP_pressure;BME280_temperature;BME280_humidity;BME280_pressure;Samples;Min_cycle;Max_cycle;Signal;HPM_P1;HPM_P2
2023/07/25 00:00:54;;;;;;;7.10;4.40;;;;;;;-143.84;85.29;45102.38;4972178;28;20835;-56
2023/07/25 00:03:21;;;;;;;10.70;4.50;;;;;;;-143.84;85.80;45070.00;4969751;28;20479;-56
2023/07/25 00:05:48;;;;;;;4.57;4.17;;;;;;;-143.84;86.22;45092.88;4972036;28;20473;-56
2023/07/25 00:08:15;;;;;;;7.20;4.70;;;;;;;-143.84;86.68;45083.34;4976239;28;20513;-56
2023/07/25 00:10:43;;;;;;;7.73;4.20;;;;;;;-143.84;87.42;45098.56;4976106;28;20475;-56
2023/07/25 00:13:11;;;;;;;7.47;4.17;;;;;;;-143.84;87.55;45075.72;4976322;28;20535;-56
2023/07/25 00:15:38;;;;;;;4.13;3.80;;;;;;;-143.84;87.99;45092.88;4976102;28;20519;-56
2023/07/25 00:18:05;;;;;;;10.70;4.60;;;;;;;-143.84;88.14;45100.47;4975824;28;20515;-56
2023/07/25 00:20:32;;;;;;;6.60;4.80;;;;;;;-143.84;88.04;45081.44;4976445;28;20444;-56
2023/07/25 00:22:59;;;;;;;8.87;5.83;;;;;;;-143.84;88.34;45075.72;4975963;28;20456;-56
2023/07/25 00:25:26;;;;;;;5.00;4.30;;;;;;;-143.84;88.32;45094.78;4976067;28;20475;-56
2023/07/25 00:27:55;;;;;;;6.63;4.73;;;;;;;-143.84;88.36;45079.53;4975905;28;20509;-56
2023/07/25 00:30:22;;;;;;;8.10;4.27;;;;;;;-143.84;88.01;45083.34;4976320;28;20539;-56
2023/07/25 00:32:49;;;;;;;5.20;4.70;;;;;;;-143.84;87.84;45075.72;4975972;28;20474;-56
2023/07/25 00:35:16;;;;;;;6.37;4.43;;;;;;;-143.84;87.74;45098.56;4975939;28;20479;-56
2023/07/25 00:37:43;;;;;;;5.37;4.87;;;;;;;-143.84;87.62;45075.72;4975760;28;20485;-56
2023/07/25 00:40:11;;;;;;;6.37;4.40;;;;;;;-143.84;87.44;45098.56;4971670;28;20503;-56
2023/07/25 00:42:38;;;;;;;4.70;4.30;;;;;;;-143.84;87.27;45092.88;4972875;28;20515;-56
2023/07/25 00:45:08;;;;;;;5.30;4.10;;;;;;;-143.84;87.26;45068.13;4972968;28;20465;-56
2023/07/25 00:47:36;;;;;;;4.00;3.60;;;;;;;-143.84;87.41;45068.13;4972882;28;20461;-56
2023/07/25 00:50:03;;;;;;;5.23;4.73;;;;;;;-143.84;86.91;45066.22;4972571;28;21104;-56
2023/07/25 00:52:31;;;;;;;14.43;5.07;;;;;;;-143.84;86.98;45102.38;4972692;28;20482;-56
2023/07/25 00:54:58;;;;;;;8.10;4.20;;;;;;;-143.84;86.71;45083.34;4972292;28;20559;-56
2023/07/25 00:57:25;;;;;;;4.57;4.13;;;;;;;-143.84;86.62;45094.78;4972690;28;20484;-56
2023/07/25 00:59:52;;;;;;;5.00;4.47;;;;;;;-143.84;86.75;45075.72;4972615;28;20947;-56
2023/07/25 01:02:21;;;;;;;5.67;5.10;;;;;;;-143.84;87.00;45090.97;4972730;28;20503;-56
2023/07/25 01:04:48;;;;;;;5.40;4.90;;;;;;;-143.84;86.93;45104.28;4972591;28;20483;-56
2023/07/25 01:07:16;;;;;;;6.33;3.90;;;;;;;-143.84;86.76;45092.88;4972419;28;21120;-56
2023/07/25 01:09:46;;;;;;;7.10;4.40;;;;;;;-143.84;87.26;45075.72;4972173;28;20455;-56
2023/07/25 01:12:14;;;;;;;8.47;4.27;;;;;;;-143.84;87.65;45081.44;4972334;28;20480;-56
2023/07/25 01:14:41;;;;;;;12.60;4.70;;;;;;;-143.84;87.35;45089.06;4972005;28;20499;-56
2023/07/25 01:17:11;;;;;;;16.07;4.87;;;;;;;-143.84;87.93;45066.22;4972352;28;20571;-56
2023/07/25 01:19:42;;;;;;;7.73;4.87;;;;;;;-143.84;87.85;45071.91;4972314;28;20494;-56
2023/07/25 01:22:10;;;;;;;8.77;4.87;;;;;;;-143.84;87.73;45092.88;4972130;28;20453;-56
2023/07/25 01:24:44;;;;;;;5.37;4.33;;;;;;;-143.84;87.13;45077.63;4972336;28;20439;-56
2023/07/25 01:27:12;;;;;;;6.80;4.50;;;;;;;-143.84;87.14;45102.38;4972202;28;20985;-56
2023/07/25 01:29:39;;;;;;;13.77;5.30;;;;;;;-143.84;86.76;45073.81;4972025;28;20832;-56
2023/07/25 01:32:07;;;;;;;9.80;5.00;;;;;;;-143.84;86.37;45106.19;4972038;28;20490;-56
2023/07/25 01:34:34;;;;;;;5.53;4.33;;;;;;;-143.84;86.15;45064.31;4971991;28;20948;-56
2023/07/25 01:37:01;;;;;;;7.93;4.30;;;;;;;-143.84;86.42;45089.06;4971909;28;20440;-56
2023/07/25 01:39:28;;;;;;;7.63;4.80;;;;;;;-143.84;85.88;45106.19;4972000;28;21008;-56
2023/07/25 01:41:56;;;;;;;6.07;4.40;;;;;;;-143.84;85.18;45092.88;4971806;28;21228;-56
2023/07/25 01:44:23;;;;;;;6.60;5.50;;;;;;;-143.84;85.03;45102.38;4971708;28;20967;-56
2023/07/25 01:46:50;;;;;;;12.33;4.70;;;;;;;-143.84;85.23;45079.53;4971655;28;20983;-56
2023/07/25 01:49:17;;;;;;;5.80;4.53;;;;;;;-143.84;85.18;45100.47;4971568;28;20486;-56
2023/07/25 01:51:44;;;;;;;10.13;4.60;;;;;;;-143.84;84.89;45083.34;4971208;28;20450;-56
2023/07/25 01:54:11;;;;;;;10.07;4.50;;;;;;;-143.84;84.10;45085.25;4971454;28;20485;-56
2023/07/25 01:56:38;;;;;;;7.57;4.47;;;;;;;-143.84;83.52;45083.34;4971631;28;20866;-56
2023/07/25 01:59:07;;;;;;;5.40;4.47;;;;;;;-143.84;83.20;45089.06;4971193;28;20515;-56
2023/07/25 02:01:34;;;;;;;5.93;4.23;;;;;;;-143.84;82.79;45090.97;4971319;28;20506;-56
2023/07/25 02:04:01;;;;;;;9.30;4.60;;;;;;;-143.84;82.31;45085.25;4971242;28;20451;-56
2023/07/25 02:06:28;;;;;;;8.67;4.63;;;;;;;-143.84;81.73;45098.56;4971689;28;20477;-56
2023/07/25 02:08:55;;;;;;;7.80;4.73;;;;;;;-143.84;80.92;45098.56;4971546;28;20547;-56
2023/07/25 02:11:22;;;;;;;7.43;3.57;;;;;;;-143.84;80.13;45098.56;4971107;28;20985;-56
2023/07/25 02:13:49;;;;;;;9.17;4.00;;;;;;;-143.84;79.45;45079.53;4971220;28;20853;-56
2023/07/25 02:16:18;;;;;;;6.43;4.60;;;;;;;-143.84;79.50;45110.00;4970898;28;20486;-56
2023/07/25 02:18:45;;;;;;;4.70;4.13;;;;;;;-143.84;78.71;45100.47;4970835;28;20490;-56
2023/07/25 02:21:12;;;;;;;6.80;4.67;;;;;;;-143.84;78.65;45083.34;4971064;28;20557;-56
2023/07/25 02:23:39;;;;;;;4.97;4.37;;;;;;;-143.84;78.45;45075.72;4970992;28;20474;-56
2023/07/25 02:26:06;;;;;;;6.20;4.53;;;;;;;-143.84;77.90;45096.66;4971060;28;20443;-56
2023/07/25 02:28:33;;;;;;;5.33;3.40;;;;;;;-143.84;77.54;45111.91;4971087;28;20482;-56
2023/07/25 02:31:00;;;;;;;6.27;4.37;;;;;;;-143.84;77.04;45111.91;4971216;28;20526;-56
2023/07/25 02:33:28;;;;;;;4.83;4.43;;;;;;;-143.84;76.93;45090.97;4971140;28;21361;-56
2023/07/25 02:35:55;;;;;;;5.57;4.63;;;;;;;-143.84;76.35;45123.34;4970886;28;20452;-56
2023/07/25 02:38:22;;;;;;;11.53;5.10;;;;;;;-143.84;76.37;45081.44;4970764;28;20483;-56
2023/07/25 02:40:50;;;;;;;5.70;3.67;;;;;;;-143.84;76.08;45075.72;4970740;28;20453;-56
2023/07/25 02:43:17;;;;;;;10.00;4.33;;;;;;;-143.84;75.98;45096.66;4970953;28;20511;-56
2023/07/25 02:45:44;;;;;;;15.20;5.20;;;;;;;-143.84;75.92;45094.78;4971056;28;20549;-56
2023/07/25 02:48:11;;;;;;;8.83;4.40;;;;;;;-143.84;76.25;45098.56;4970746;28;20449;-56
2023/07/25 02:50:39;;;;;;;12.73;4.40;;;;;;;-143.84;76.09;45066.22;4970725;28;20519;-56
2023/07/25 02:53:06;;;;;;;9.30;4.40;;;;;;;-143.84;75.04;45102.38;4970582;28;20468;-56
2023/07/25 02:55:33;;;;;;;6.20;4.60;;;;;;;-143.84;75.18;45081.44;4970202;28;20497;-56
2023/07/25 02:58:00;;;;;;;8.10;5.07;;;;;;;-143.84;75.11;45090.97;4970313;28;20542;-56
2023/07/25 03:00:27;;;;;;;10.30;4.83;;;;;;;-143.84;75.24;45090.97;4970660;28;20480;-56
2023/07/25 03:02:54;;;;;;;6.10;4.07;;;;;;;-143.84;75.26;45068.13;4969896;28;20444;-56
2023/07/25 03:05:21;;;;;;;5.47;4.67;;;;;;;-143.84;75.39;45089.06;4970183;28;20538;-56
2023/07/25 03:07:50;;;;;;;9.00;4.60;;;;;;;-143.84;75.43;45092.88;4970350;28;20460;-56
2023/07/25 03:10:17;;;;;;;9.73;5.23;;;;;;;-143.84;75.70;45075.72;4970198;28;20451;-56
2023/07/25 03:12:44;;;;;;;7.07;4.70;;;;;;;-143.84;75.61;45087.16;4970573;28;20444;-56
2023/07/25 03:15:11;;;;;;;8.80;4.50;;;;;;;-143.84;75.55;45068.13;4970295;28;20468;-56
2023/07/25 03:17:38;;;;;;;19.70;4.97;;;;;;;-143.84;75.59;45075.72;4970114;28;20476;-56
2023/07/25 03:20:07;;;;;;;15.77;5.20;;;;;;;-143.84;75.43;45085.25;4970238;28;20448;-56
2023/07/25 03:22:34;;;;;;;10.10;3.83;;;;;;;-143.84;75.00;45102.38;4970057;28;20461;-56
2023/07/25 03:25:02;;;;;;;17.70;4.80;;;;;;;-143.84;75.36;45068.13;4970128;28;20443;-56
2023/07/25 03:27:29;;;;;;;33.97;5.47;;;;;;;-143.84;75.10;45050.97;4970398;28;20453;-56
2023/07/25 03:29:57;;;;;;;8.87;5.30;;;;;;;-143.84;74.52;45070.00;4970175;28;21078;-56
2023/07/25 03:32:24;;;;;;;8.93;4.47;;;;;;;-143.84;73.42;45089.06;4970045;28;20449;-56
2023/07/25 03:34:51;;;;;;;7.77;5.27;;;;;;;-143.84;70.80;45073.81;4970021;28;20938;-56
2023/07/25 03:37:18;;;;;;;9.83;4.80;;;;;;;-143.84;68.92;45066.22;4970107;28;20449;-56
2023/07/25 03:39:45;;;;;;;13.60;5.50;;;;;;;-143.84;67.87;45068.13;4969669;28;20493;-56
2023/07/25 03:42:13;;;;;;;9.80;4.97;;;;;;;-143.84;66.20;45056.69;4970054;28;20442;-56
2023/07/25 03:44:40;;;;;;;8.63;5.47;;;;;;;-143.84;65.12;45064.31;4969752;28;20453;-56
2023/07/25 03:47:08;;;;;;;12.20;5.77;;;;;;;-143.84;63.27;45037.66;4970137;28;20506;-56
2023/07/25 03:49:35;;;;;;;10.03;5.57;;;;;;;-143.84;61.09;45043.34;4970174;28;20935;-55
2023/07/25 03:52:02;;;;;;;16.37;4.87;;;;;;;-143.84;60.71;45041.44;4969697;28;20448;-56
2023/07/25 03:54:29;;;;;;;7.20;4.40;;;;;;;-143.84;57.75;45056.69;4969482;28;20551;-56
2023/07/25 03:56:56;;;;;;;4.80;3.60;;;;;;;-143.84;57.17;45047.16;4969927;28;20450;-56
2023/07/25 03:59:25;;;;;;;11.07;4.70;;;;;;;-143.84;55.66;45026.22;4969730;28;20489;-56
2023/07/25 04:01:52;;;;;;;5.90;4.10;;;;;;;-143.84;54.26;45010.97;4969849;28;20492;-56
2023/07/25 04:04:19;;;;;;;13.97;4.23;;;;;;;-143.84;53.21;45012.88;4969849;28;20447;-56
2023/07/25 04:06:46;;;;;;;10.13;5.10;;;;;;;-143.84;53.55;45037.66;4969780;28;20454;-56
2023/07/25 04:09:13;;;;;;;7.97;4.10;;;;;;;-143.84;52.52;45039.53;4969818;28;21045;-56
2023/07/25 04:11:40;;;;;;;14.97;5.03;;;;;;;-143.84;51.98;45007.19;4969725;28;20509;-56
2023/07/25 04:14:07;;;;;;;8.23;4.27;;;;;;;-143.84;51.57;45020.50;4971854;28;20445;-56
2023/07/25 04:16:36;;;;;;;6.30;3.90;;;;;;;-143.84;51.06;44991.94;4973463;28;20978;-56
2023/07/25 04:19:03;;;;;;;13.37;3.57;;;;;;;-143.84;49.99;45010.97;4973207;28;21066;-56
2023/07/25 04:21:30;;;;;;;12.23;4.40;;;;;;;-143.84;50.33;45003.38;4973434;28;20446;-56
2023/07/25 04:23:57;;;;;;;6.40;3.70;;;;;;;-143.84;50.25;45003.38;4973265;28;20506;-56
2023/07/25 04:26:24;;;;;;;9.63;4.27;;;;;;;-143.84;50.20;44997.66;4973065;28;20487;-56
2023/07/25 04:28:51;;;;;;;3.73;3.33;;;;;;;-143.84;49.91;44991.94;4973179;28;21045;-56
2023/07/25 04:31:18;;;;;;;13.30;3.97;;;;;;;-143.84;49.75;44988.13;4973169;28;20446;-56
2023/07/25 04:33:47;;;;;;;11.43;5.27;;;;;;;-143.84;49.63;45018.59;4973114;28;20468;-56
2023/07/25 04:36:14;;;;;;;18.30;4.50;;;;;;;-143.84;49.77;45005.28;4973042;28;20952;-56
2023/07/25 04:38:41;;;;;;;6.83;3.80;;;;;;;-143.84;49.08;45007.19;4973169;28;20484;-56
2023/07/25 04:41:08;;;;;;;5.30;4.80;;;;;;;-143.84;48.59;44988.13;4973125;28;20441;-56
2023/07/25 04:43:35;;;;;;;8.20;4.10;;;;;;;-143.84;48.37;44976.72;4972883;28;20512;-56
2023/07/25 04:46:02;;;;;;;5.77;4.00;;;;;;;-143.84;47.23;44997.66;4972961;28;20446;-55
2023/07/25 04:48:30;;;;;;;7.37;4.57;;;;;;;-143.84;47.22;45014.78;4972971;28;20512;-56
2023/07/25 04:50:58;;;;;;;7.60;3.93;;;;;;;-143.84;46.72;44980.53;4972784;28;20445;-56
2023/07/25 04:53:25;;;;;;;4.73;4.00;;;;;;;-143.84;46.86;45003.38;4972866;28;20841;-56
2023/07/25 04:55:52;;;;;;;5.03;3.77;;;;;;;-143.84;46.24;44980.53;4972731;28;20509;-56
2023/07/25 04:58:19;;;;;;;6.10;3.83;;;;;;;-143.84;45.70;44988.13;4972683;28;20556;-56
2023/07/25 05:00:47;;;;;;;5.00;4.07;;;;;;;-143.84;45.87;44995.75;4972504;28;20449;-56
2023/07/25 05:03:14;;;;;;;6.80;3.93;;;;;;;-143.84;45.28;44967.19;4972692;28;20446;-56
2023/07/25 05:05:41;;;;;;;5.50;4.17;;;;;;;-143.84;44.97;44969.09;4972686;28;20449;-56
2023/07/25 05:08:10;;;;;;;8.17;3.70;;;;;;;-143.84;44.50;44969.09;4972013;28;20442;-56
2023/07/25 05:10:37;;;;;;;8.87;3.60;;;;;;;-143.84;44.50;44978.63;4972853;28;21029;-55
2023/07/25 05:13:04;;;;;;;5.17;3.93;;;;;;;-143.84;44.96;44984.31;4972748;28;20450;-55
2023/07/25 05:15:31;;;;;;;7.73;3.60;;;;;;;-143.84;44.38;44990.03;4972429;28;20489;-55
2023/07/25 05:17:58;;;;;;;4.60;3.77;;;;;;;-143.84;43.22;44969.09;4972674;28;20465;-55
2023/07/25 05:20:25;;;;;;;7.90;3.73;;;;;;;-143.84;44.05;44980.53;4972190;28;20446;-55
2023/07/25 05:22:53;;;;;;;10.63;3.77;;;;;;;-143.84;43.53;44980.53;4972193;28;20873;-55
2023/07/25 05:25:21;;;;;;;10.33;3.80;;;;;;;-143.84;43.23;44993.84;4971501;28;20446;-55
2023/07/25 05:27:48;;;;;;;6.17;4.20;;;;;;;-143.84;43.55;44980.53;4971806;28;20957;-56
2023/07/25 05:30:15;;;;;;;5.60;3.47;;;;;;;-143.84;43.08;44980.53;4972088;28;20477;-55
2023/07/25 05:32:42;;;;;;;3.23;2.97;;;;;;;-143.84;42.93;44965.28;4971995;28;20450;-55
2023/07/25 05:35:10;;;;;;;10.73;3.33;;;;;;;-143.84;42.88;44978.63;4972075;28;20446;-55
2023/07/25 05:37:38;;;;;;;5.53;3.30;;;;;;;-143.84;43.13;44957.66;4971972;28;20493;-55
2023/07/25 05:40:07;;;;;;;16.53;4.70;;;;;;;-143.84;43.66;44969.09;4971758;28;20505;-55
2023/07/25 05:42:35;;;;;;;4.47;4.07;;;;;;;-143.84;43.04;44934.81;4971753;28;20446;-55
2023/07/25 05:45:04;;;;;;;7.43;3.43;;;;;;;-143.84;43.41;44940.53;4972222;28;20446;-55
2023/07/25 05:47:31;;;;;;;5.87;3.90;;;;;;;-143.84;43.76;44948.16;4971606;28;20446;-55
2023/07/25 05:49:58;;;;;;;5.57;3.77;;;;;;;-143.84;43.45;44961.47;4971714;28;20891;-55
2023/07/25 05:52:25;;;;;;;9.80;3.20;;;;;;;-143.84;44.04;44925.31;4971491;28;20450;-55
2023/07/25 05:54:53;;;;;;;6.87;3.17;;;;;;;-143.84;44.08;44959.56;4971252;28;20509;-55
2023/07/25 05:57:21;;;;;;;4.77;3.70;;;;;;;-143.84;43.33;44942.44;4971642;28;20505;-55
2023/07/25 05:59:49;;;;;;;7.83;3.60;;;;;;;-143.84;44.31;44944.34;4971285;28;20481;-55
2023/07/25 06:02:17;;;;;;;5.10;3.70;;;;;;;-143.84;46.56;44965.28;4971597;28;20446;-55
2023/07/25 06:04:46;;;;;;;3.83;3.50;;;;;;;-143.84;46.33;44940.53;4971595;28;20470;-55
2023/07/25 06:07:13;;;;;;;5.80;3.50;;;;;;;-143.84;46.15;44963.38;4971327;28;20449;-56
2023/07/25 06:09:41;;;;;;;5.33;3.70;;;;;;;-143.84;46.35;44953.88;4971270;28;20476;-55
2023/07/25 06:12:09;;;;;;;4.67;3.60;;;;;;;-143.84;46.95;44972.91;4971202;28;20442;-55
2023/07/25 06:14:36;;;;;;;5.37;4.37;;;;;;;-143.84;49.82;44963.38;4971145;28;20998;-55
2023/07/25 06:17:05;;;;;;;12.00;4.50;;;;;;;-143.84;49.05;44940.53;4971232;28;20505;-55
2023/07/25 06:19:32;;;;;;;3.50;3.00;;;;;;;-143.84;49.51;44969.09;4971154;28;20583;-55
2023/07/25 06:21:59;;;;;;;4.60;3.80;;;;;;;-143.84;49.14;44948.16;4971188;28;20442;-54
2023/07/25 06:24:26;;;;;;;6.17;4.23;;;;;;;-143.84;49.00;44965.28;4971273;28;20445;-55
2023/07/25 06:26:53;;;;;;;3.90;3.60;;;;;;;-143.84;51.54;44946.25;4971101;28;20806;-55
2023/07/25 06:29:21;;;;;;;7.50;3.93;;;;;;;-143.84;52.92;44963.38;4971073;28;20998;-55
2023/07/25 06:31:48;;;;;;;4.53;3.90;;;;;;;-143.84;51.86;44953.88;4970925;28;20442;-55
2023/07/25 06:34:16;;;;;;;4.67;4.20;;;;;;;-143.84;51.90;44934.81;4970949;28;20438;-55
2023/07/25 06:36:43;;;;;;;6.20;4.60;;;;;;;-143.84;53.39;44950.06;4970234;28;21011;-59
2023/07/25 06:39:10;;;;;;;5.07;4.00;;;;;;;-143.84;54.72;44961.47;4971204;28;20837;-59
2023/07/25 06:41:37;;;;;;;6.97;5.00;;;;;;;-143.84;58.93;44948.16;4971403;28;20525;-59
2023/07/25 06:44:05;;;;;;;10.60;4.33;;;;;;;-143.84;59.44;44991.94;4971363;28;20516;-59
2023/07/25 06:46:32;;;;;;;6.50;5.00;;;;;;;-143.84;58.02;44951.97;4971574;28;21095;-59
2023/07/25 06:48:59;;;;;;;11.90;4.93;;;;;;;-143.84;58.06;44940.53;4971071;28;20964;-59
2023/07/25 06:51:27;;;;;;;11.57;4.83;;;;;;;-143.84;56.67;44969.09;4971425;28;20952;-59
2023/07/25 06:53:54;;;;;;;6.60;4.90;;;;;;;-143.84;57.36;44950.06;4971178;28;20533;-59
2023/07/25 06:56:21;;;;;;;7.23;5.30;;;;;;;-143.84;56.59;44957.66;4970713;28;20446;-59
2023/07/25 06:58:48;;;;;;;5.43;4.90;;;;;;;-143.84;55.63;44950.06;4970652;28;20442;-59
2023/07/25 07:01:15;;;;;;;8.67;4.50;;;;;;;-143.84;56.87;44950.06;4970850;28;20854;-58
2023/07/25 07:03:43;;;;;;;8.20;4.77;;;;;;;-143.84;53.68;44913.88;4970517;28;20441;-59
2023/07/25 07:06:10;;;;;;;6.00;5.40;;;;;;;-143.84;53.86;44921.50;4971169;28;20517;-59
2023/07/25 07:08:38;;;;;;;9.43;5.77;;;;;;;-143.84;51.90;44919.59;4971525;28;20573;-59
2023/07/25 07:11:05;;;;;;;5.17;4.77;;;;;;;-143.84;52.27;44932.91;4971136;28;20449;-59
2023/07/25 07:13:32;;;;;;;10.83;5.53;;;;;;;-143.84;50.99;44938.63;4971176;28;20438;-59
2023/07/25 07:15:59;;;;;;;12.57;5.53;;;;;;;-143.84;52.66;44927.19;4971011;28;20442;-59
2023/07/25 07:18:27;;;;;;;9.90;6.40;;;;;;;-143.84;52.29;44944.34;4970948;28;20449;-59
2023/07/25 07:20:54;;;;;;;9.67;5.93;;;;;;;-143.84;53.74;44951.97;4970907;28;20478;-59
2023/07/25 07:23:21;;;;;;;14.47;6.40;;;;;;;-143.84;54.61;44942.44;4970608;28;20438;-59
2023/07/25 07:25:51;;;;;;;6.90;5.37;;;;;;;-143.84;51.64;44969.09;4970815;28;20473;-59
2023/07/25 07:28:18;;;;;;;12.27;6.03;;;;;;;-143.84;53.84;44931.00;4970745;28;20450;-59
2023/07/25 07:30:50;;;;;;;11.80;5.57;;;;;;;-143.84;51.56;44963.38;4970701;28;20450;-59
2023/07/25 07:33:17;;;;;;;9.30;5.27;;;;;;;-143.84;53.09;44957.66;4971111;28;20445;-59
2023/07/25 07:35:44;;;;;;;9.47;5.37;;;;;;;-143.84;51.81;44965.28;4970786;28;20430;-59
2023/07/25 07:38:11;;;;;;;8.47;5.47;;;;;;;-143.84;51.96;44948.16;4970807;28;20441;-59
2023/07/25 07:40:38;;;;;;;5.90;4.53;;;;;;;-143.84;51.48;44976.72;4970638;28;20485;-59
2023/07/25 07:43:06;;;;;;;12.30;5.80;;;;;;;-143.84;50.30;44963.38;4970788;28;20500;-59
2023/07/25 07:45:33;;;;;;;7.70;5.43;;;;;;;-143.84;50.00;44931.00;4971137;28;20991;-59
2023/07/25 07:48:01;;;;;;;11.57;5.77;;;;;;;-143.84;49.05;44950.06;4971136;28;20450;-59
2023/07/25 07:50:32;;;;;;;10.30;4.30;;;;;;;-143.84;48.87;44944.34;4974681;28;20448;-59
2023/07/25 07:53:00;;;;;;;13.53;5.00;;;;;;;-143.84;47.60;44980.53;4972980;28;20446;-59
2023/07/25 07:55:28;;;;;;;8.67;4.80;;;;;;;-143.84;48.26;44965.28;4974527;28;20482;-59
2023/07/25 07:57:55;;;;;;;7.37;4.73;;;;;;;-143.84;48.88;44944.34;4974697;28;20551;-59
2023/07/25 08:00:24;;;;;;;5.40;4.60;;;;;;;-143.84;47.63;44929.09;4974324;28;20496;-59
2023/07/25 08:02:52;;;;;;;6.50;4.73;;;;;;;-143.84;47.62;44957.66;4974421;28;20438;-59
2023/07/25 08:05:19;;;;;;;14.10;5.40;;;;;;;-143.84;48.43;44932.91;4974288;28;20430;-59
2023/07/25 08:07:46;;;;;;;6.90;4.63;;;;;;;-143.84;48.23;44959.56;4974553;28;20476;-59
2023/07/25 08:10:14;;;;;;;8.00;4.93;;;;;;;-143.84;48.63;44969.09;4974156;28;20523;-58
2023/07/25 08:12:41;;;;;;;5.10;4.50;;;;;;;-143.84;48.36;44927.19;4973864;28;20505;-59
2023/07/25 08:15:08;;;;;;;7.07;5.60;;;;;;;-143.84;49.06;44948.16;4974088;28;20477;-59
2023/07/25 08:17:37;;;;;;;8.40;4.93;;;;;;;-143.84;48.16;44957.66;4974325;28;20478;-59
2023/07/25 08:20:05;;;;;;;12.20;5.47;;;;;;;-143.84;49.20;44929.09;4972690;28;20492;-58
2023/07/25 08:22:32;;;;;;;6.53;5.00;;;;;;;-143.84;51.07;44917.69;4974090;28;20829;-59
2023/07/25 08:24:59;;;;;;;6.23;5.20;;;;;;;-143.84;47.68;44950.06;4973760;28;20973;-58
2023/07/25 08:27:26;;;;;;;9.93;5.60;;;;;;;-143.84;48.48;44959.56;4973709;28;20441;-58
2023/07/25 08:29:53;;;;;;;6.60;5.10;;;;;;;-143.84;49.94;44942.44;4973743;28;21173;-58
2023/07/25 08:32:20;;;;;;;6.40;5.60;;;;;;;-143.84;49.08;44925.31;4973807;28;20457;-59
2023/07/25 08:34:49;;;;;;;7.07;5.00;;;;;;;-143.84;50.42;44967.19;4973741;28;20446;-58
2023/07/25 08:37:16;;;;;;;7.27;5.13;;;;;;;-143.84;50.48;44984.31;4973624;28;20548;-58
2023/07/25 08:39:43;;;;;;;9.07;5.47;;;;;;;-143.84;52.55;44963.38;4973501;28;20477;-58
2023/07/25 08:42:12;;;;;;;7.57;5.70;;;;;;;-143.84;51.51;44969.09;4973753;28;20462;-59
2023/07/25 08:44:41;;;;;;;9.63;4.83;;;;;;;-143.84;50.96;44961.47;4973500;28;20470;-58
2023/07/25 08:47:16;;;;;;;5.90;5.40;;;;;;;-143.84;50.36;44972.91;4973610;28;21037;-59
2023/07/25 08:49:48;;;;;;;6.37;4.70;;;;;;;-143.84;51.32;44950.06;4973963;28;20465;-58
2023/07/25 08:52:18;;;;;;;6.13;4.80;;;;;;;-143.84;50.91;44963.38;4973338;28;21053;-58
2023/07/25 08:54:47;;;;;;;7.43;5.30;;;;;;;-143.84;51.62;44957.66;4972834;28;20493;-58
2023/07/25 08:57:18;;;;;;;7.10;5.00;;;;;;;-143.84;51.78;44980.53;4973496;28;20813;-58
2023/07/25 08:59:47;;;;;;;9.30;5.00;;;;;;;-143.84;53.31;44976.72;4971991;28;20477;-58
2023/07/25 09:02:17;;;;;;;13.50;5.30;;;;;;;-143.84;51.08;44976.72;4972321;28;20449;-58
2023/07/25 09:04:46;;;;;;;5.90;4.77;;;;;;;-143.84;52.37;44965.28;4973653;28;20446;-59
2023/07/25 09:07:14;;;;;;;8.30;5.00;;;;;;;-143.84;50.42;44993.84;4973105;28;20441;-58
2023/07/25 09:09:41;;;;;;;8.57;5.37;;;;;;;-143.84;50.48;44969.09;4973217;28;20864;-58
2023/07/25 09:12:09;;;;;;;12.20;5.70;;;;;;;-143.84;51.14;44967.19;4973368;28;20815;-58
2023/07/25 09:14:38;;;;;;;12.13;4.70;;;;;;;-143.84;52.81;44972.91;4972702;28;20449;-58
2023/07/25 09:17:05;;;;;;;9.87;7.17;;;;;;;-143.84;53.64;44946.25;4972808;28;20971;-58
2023/07/25 09:19:33;;;;;;;9.83;6.37;;;;;;;-143.84;55.05;44961.47;4972786;28;20473;-58
2023/07/25 09:22:00;;;;;;;10.50;5.13;;;;;;;-143.84;54.09;44955.75;4972880;28;20619;-58
2023/07/25 09:24:37;;;;;;;6.43;5.00;;;;;;;-143.84;56.55;44955.75;4972983;28;20504;-58
2023/07/25 09:27:05;;;;;;;9.50;5.70;;;;;;;-143.84;55.51;44978.63;4972646;28;20508;-58
2023/07/25 09:29:32;;;;;;;7.60;4.87;;;;;;;-143.84;56.03;44982.41;4972576;28;20521;-58
2023/07/25 09:31:59;;;;;;;8.87;5.47;;;;;;;-143.84;57.19;44969.09;4972842;28;20818;-58
2023/07/25 09:34:26;;;;;;;8.27;5.17;;;;;;;-143.84;57.67;44995.75;4972550;28;20976;-59
2023/07/25 09:36:53;;;;;;;6.73;5.60;;;;;;;-143.84;60.27;44976.72;4972467;28;20490;-58
2023/07/25 09:39:21;;;;;;;9.23;5.40;;;;;;;-143.84;57.03;44972.91;4972878;28;20436;-58
2023/07/25 09:41:52;;;;;;;7.83;4.97;;;;;;;-143.84;57.49;44961.47;4972134;28;21013;-59
2023/07/25 09:44:19;;;;;;;5.63;4.57;;;;;;;-143.84;56.68;44963.38;4973095;28;20442;-58
2023/07/25 09:46:52;;;;;;;7.83;5.20;;;;;;;-143.84;53.90;44967.19;4972611;28;20446;-58
2023/07/25 09:49:22;;;;;;;7.40;4.83;;;;;;;-143.84;56.16;44965.28;4972226;28;20470;-58
2023/07/25 09:51:59;;;;;;;7.30;4.90;;;;;;;-143.84;56.02;44959.56;4972519;28;20871;-58
2023/07/25 09:54:26;;;;;;;6.00;4.80;;;;;;;-143.84;59.33;44995.75;4972255;28;20493;-58
2023/07/25 09:56:55;;;;;;;7.27;5.73;;;;;;;-143.84;62.69;44967.19;4971941;28;20508;-58
2023/07/25 09:59:23;;;;;;;5.53;4.60;;;;;;;-143.84;59.18;45001.47;4972681;28;20474;-58
2023/07/25 10:01:52;;;;;;;7.40;4.40;;;;;;;-143.84;57.60;44957.66;4972132;28;20482;-59
2023/07/25 10:04:20;;;;;;;4.50;4.10;;;;;;;-143.84;51.73;44965.28;4971901;28;21007;-59
2023/07/25 10:06:48;;;;;;;7.93;4.00;;;;;;;-143.84;52.10;44942.44;4971922;28;20449;-58
2023/07/25 10:09:16;;;;;;;9.17;4.20;;;;;;;-143.84;52.38;44963.38;4972039;28;20449;-58
2023/07/25 10:11:43;;;;;;;4.37;3.97;;;;;;;-143.84;51.30;44950.06;4971688;28;20531;-58
2023/07/25 10:14:11;;;;;;;5.33;4.07;;;;;;;-143.84;51.35;44991.94;4971780;28;20470;-58
2023/07/25 10:16:39;;;;;;;7.83;5.17;;;;;;;-143.84;52.78;44946.25;4971575;28;20449;-58
2023/07/25 10:19:07;;;;;;;5.17;4.13;;;;;;;-143.84;52.50;44965.28;4971522;28;20477;-58
2023/07/25 10:21:48;;;;;;;6.27;4.10;;;;;;;-143.84;52.27;44972.91;4971645;28;20547;-58
2023/07/25 10:24:16;;;;;;;9.93;4.53;;;;;;;-143.84;51.66;44965.28;4971633;28;20536;-58
2023/07/25 10:26:58;;;;;;;9.40;4.47;;;;;;;-143.84;52.17;44965.28;4971640;28;20442;-58
2023/07/25 10:29:41;;;;;;;7.20;4.17;;;;;;;-143.84;51.73;44976.72;4969077;28;20453;-58
2023/07/25 10:32:10;;;;;;;6.80;4.43;;;;;;;-143.84;49.35;44969.09;4971421;28;20461;-59
2023/07/25 10:34:51;;;;;;;5.43;3.97;;;;;;;-143.84;50.22;44955.75;4971049;28;20465;-58
2023/07/25 10:37:27;;;;;;;7.13;4.77;;;;;;;-143.84;48.95;44961.47;4971298;28;20515;-58
2023/07/25 10:40:11;;;;;;;5.60;4.47;;;;;;;-143.84;50.22;44959.56;4959305;28;20454;-58
2023/07/25 10:42:44;;;;;;;5.00;4.23;;;;;;;-143.84;49.83;44967.19;4971374;28;20461;-58
2023/07/25 10:45:50;;;;;;;12.63;5.13;;;;;;;-143.84;49.47;44944.34;4971724;28;20434;-58
2023/07/25 10:48:45;;;;;;;6.83;4.80;;;;;;;-143.84;51.92;44938.63;4969290;28;20469;-58
2023/07/25 10:51:15;;;;;;;8.97;5.67;;;;;;;-143.84;52.12;44982.41;4971305;28;20476;-58
2023/07/25 10:53:42;;;;;;;7.93;5.30;;;;;;;-143.84;53.43;44925.31;4970722;28;20465;-58
2023/07/25 10:56:14;;;;;;;15.83;6.10;;;;;;;-143.84;52.87;44953.88;4971113;28;20481;-58
2023/07/25 10:59:02;;;;;;;9.40;5.10;;;;;;;-143.84;54.97;44950.06;4971161;28;20528;-58
2023/07/25 11:01:36;;;;;;;7.83;5.23;;;;;;;-143.84;56.88;44934.81;4971209;28;20918;-58
2023/07/25 11:04:29;;;;;;;8.03;4.67;;;;;;;-143.84;55.26;44957.66;4971145;28;20991;-58
2023/07/25 11:06:58;;;;;;;11.03;5.90;;;;;;;-143.84;57.02;44978.63;4970928;28;20450;-58
2023/07/25 11:09:26;;;;;;;11.13;5.90;;;;;;;-143.84;53.09;44963.38;4970800;28;20516;-58
2023/07/25 11:11:55;;;;;;;18.07;5.17;;;;;;;-143.84;55.46;44988.13;4971023;28;20957;-58
2023/07/25 11:14:23;;;;;;;10.17;5.50;;;;;;;-143.84;58.33;44999.56;4970789;28;20533;-58
2023/07/25 11:16:53;;;;;;;6.17;5.30;;;;;;;-143.84;57.10;44974.81;4970836;28;20454;-58
2023/07/25 11:19:26;;;;;;;9.90;6.13;;;;;;;-143.84;60.04;44972.91;4970865;28;20501;-58